createdAt,value
2022-11-17T00:02:13.087Z,95219.19
2022-11-17T00:04:39.674Z,95221.19
2022-11-17T00:07:06.120Z,95203.19
2022-11-17T00:09:32.565Z,95197.94
2022-11-17T00:12:22.360Z,95181.56
2022-11-17T00:14:49.207Z,95169.66
2022-11-17T00:17:15.570Z,95163.41
2022-11-17T00:20:00.580Z,95160.72
2022-11-17T00:22:31.129Z,95154.72
2022-11-17T00:24:57.656Z,95121.63
2022-11-17T00:27:24.066Z,95135.91
2022-11-17T00:29:50.597Z,95119.97
2022-11-17T00:32:37.399Z,95119.91
2022-11-17T00:35:05.197Z,95114.44
2022-11-17T00:37:35.848Z,95089.38
2022-11-17T00:40:02.250Z,95090.94
2022-11-17T00:42:28.628Z,95092.56
2022-11-17T00:44:54.988Z,95100.59
2022-11-17T00:47:21.517Z,95097.97
2022-11-17T00:49:48.166Z,95086.09
2022-11-17T00:52:14.595Z,95089.69
2022-11-17T00:54:40.985Z,95112.69
2022-11-17T00:57:07.368Z,95125.25
2022-11-17T00:59:33.780Z,95120.41
2022-11-17T01:02:00.354Z,95132.53
2022-11-17T01:04:26.797Z,95125.91
2022-11-17T01:06:53.319Z,95105.56
2022-11-17T01:09:22.285Z,95139.06
2022-11-17T01:11:50.815Z,95140.25
2022-11-17T01:14:26.315Z,95145.94
2022-11-17T01:16:53.545Z,95148.13
2022-11-17T01:19:20.663Z,95160.13
2022-11-17T01:21:47.372Z,95152.00
2022-11-17T01:24:16.099Z,95160.94
2022-11-17T01:26:44.067Z,95162.53
2022-11-17T01:29:12.884Z,95169.06
2022-11-17T01:31:43.334Z,95174.09
2022-11-17T01:34:10.542Z,95171.06
2022-11-17T01:36:57.984Z,95171.22
2022-11-17T01:39:25.906Z,95164.56
2022-11-17T01:41:53.112Z,95170.06
2022-11-17T01:44:53.052Z,95170.28
2022-11-17T01:47:28.556Z,95170.88
2022-11-17T01:50:01.097Z,95176.31
2022-11-17T01:52:29.539Z,95166.19
2022-11-17T01:54:58.999Z,95117.06
2022-11-17T01:57:32.979Z,95161.03
2022-11-17T02:00:04.241Z,95177.94
2022-11-17T02:02:31.272Z,95159.38
2022-11-17T02:05:33.533Z,95183.81
2022-11-17T02:08:02.248Z,95183.59
2022-11-17T02:10:30.950Z,95178.75
2022-11-17T02:12:58.799Z,95167.47
2022-11-17T02:15:26.669Z,95184.00
2022-11-17T02:17:54.184Z,95190.91
2022-11-17T02:20:30.705Z,95180.78
2022-11-17T02:23:24.642Z,95182.34
2022-11-17T02:26:27.268Z,95171.44
2022-11-17T02:29:08.011Z,95174.47
2022-11-17T02:32:02.819Z,95177.53
2022-11-17T02:34:47.387Z,95171.84
2022-11-17T02:37:52.142Z,95165.13
2022-11-17T02:40:27.709Z,95173.03
2022-11-17T02:43:18.963Z,95154.88
2022-11-17T02:45:52.057Z,95183.94
2022-11-17T02:48:26.789Z,95195.69
2022-11-17T02:50:55.018Z,95185.41
2022-11-17T02:53:24.170Z,95185.97
2022-11-17T02:55:53.278Z,95198.13
2022-11-17T02:58:20.426Z,95196.09
2022-11-17T03:01:18.660Z,95175.53
2022-11-17T03:03:57.697Z,95194.47
2022-11-17T03:06:41.422Z,95202.09
2022-11-17T03:09:29.717Z,95195.25
2022-11-17T03:12:16.317Z,95211.84
2022-11-17T03:15:07.176Z,95222.00
2022-11-17T03:17:56.797Z,95215.69
2022-11-17T03:20:29.339Z,95220.94
2022-11-17T03:23:11.610Z,95226.59
2022-11-17T03:25:45.477Z,95227.38
2022-11-17T03:28:13.660Z,95211.06
2022-11-17T03:30:42.863Z,95211.91
2022-11-17T03:33:15.403Z,95224.16
2022-11-17T03:35:50.777Z,95231.59
2022-11-17T03:38:20.607Z,95235.25
2022-11-17T03:40:50.919Z,95237.69
2022-11-17T03:43:20.234Z,95245.56
2022-11-17T03:45:53.941Z,95241.31
2022-11-17T03:48:28.560Z,95242.09
2022-11-17T03:51:12.604Z,95236.44
2022-11-17T03:53:39.168Z,95237.84
2022-11-17T03:56:27.677Z,95226.72
2022-11-17T03:59:01.564Z,95231.41
2022-11-17T04:01:30.458Z,95220.44
2022-11-17T04:03:57.016Z,95225.91
2022-11-17T04:06:23.485Z,95220.66
2022-11-17T04:08:49.880Z,95221.88
2022-11-17T04:11:35.063Z,95228.72
2022-11-17T04:14:19.794Z,95221.88
2022-11-17T04:16:46.374Z,95225.50
2022-11-17T04:19:13.064Z,95219.44
2022-11-17T04:21:39.457Z,95191.19
2022-11-17T04:24:06.479Z,95213.16
2022-11-17T04:26:51.324Z,95205.28
2022-11-17T04:29:17.734Z,95198.00
2022-11-17T04:31:44.148Z,95203.66
2022-11-17T04:34:10.547Z,95180.25
2022-11-17T04:36:43.284Z,95198.41
2022-11-17T04:39:10.710Z,95189.06
2022-11-17T04:41:57.100Z,95197.59
2022-11-17T04:44:28.865Z,95198.81
2022-11-17T04:47:06.064Z,95181.44
2022-11-17T04:49:33.313Z,95191.94
2022-11-17T04:52:00.492Z,95188.72
2022-11-17T04:54:27.659Z,95198.41
2022-11-17T04:56:55.055Z,95195.22
2022-11-17T04:59:21.604Z,95165.84
2022-11-17T05:01:51.782Z,95183.13
2022-11-17T05:04:45.422Z,95197.03
2022-11-17T05:07:15.795Z,95192.81
2022-11-17T05:09:44.602Z,95179.44
2022-11-17T05:12:29.669Z,95185.34
2022-11-17T05:14:56.849Z,95184.75
2022-11-17T05:17:23.308Z,95183.13
2022-11-17T05:19:49.746Z,95156.28
2022-11-17T05:22:38.029Z,95166.53
2022-11-17T05:25:05.627Z,95170.16
2022-11-17T05:27:33.894Z,95181.94
2022-11-17T05:30:01.329Z,95181.50
2022-11-17T05:32:27.740Z,95176.22
2022-11-17T05:34:54.152Z,95175.88
2022-11-17T05:37:24.824Z,95140.81
2022-11-17T05:39:51.205Z,95157.25
2022-11-17T05:42:17.615Z,95148.38
2022-11-17T05:44:44.044Z,95143.75
2022-11-17T05:47:10.434Z,95141.94
2022-11-17T05:49:36.907Z,95123.13
2022-11-17T05:52:03.357Z,95115.66
2022-11-17T05:54:29.814Z,95106.59
2022-11-17T05:57:02.975Z,95092.00
2022-11-17T05:59:55.158Z,95093.47
2022-11-17T06:02:29.450Z,95088.81
2022-11-17T06:04:55.827Z,95075.66
2022-11-17T06:07:22.464Z,95072.81
2022-11-17T06:09:50.842Z,95053.50
2022-11-17T06:12:17.288Z,95070.00
2022-11-17T06:14:43.838Z,95063.94
2022-11-17T06:17:22.744Z,95059.06
2022-11-17T06:19:55.729Z,95049.75
2022-11-17T06:22:22.517Z,95054.63
2022-11-17T06:24:49.016Z,95031.25
2022-11-17T06:27:16.823Z,95034.50
2022-11-17T06:29:45.080Z,95039.22
2022-11-17T06:32:16.162Z,95030.03
2022-11-17T06:34:47.985Z,95022.31
2022-11-17T06:37:16.987Z,95015.84
2022-11-17T06:39:43.425Z,95016.22
2022-11-17T06:42:09.817Z,95012.38
2022-11-17T06:44:36.318Z,95002.88
2022-11-17T06:47:02.687Z,94995.44
2022-11-17T06:49:29.391Z,94983.91
2022-11-17T06:51:55.788Z,94956.94
2022-11-17T06:54:22.213Z,94990.78
2022-11-17T06:56:49.719Z,94992.34
2022-11-17T06:59:16.157Z,94990.09
2022-11-17T07:01:43.358Z,94999.13
2022-11-17T07:04:09.988Z,94999.13
2022-11-17T07:06:37.264Z,94999.13
2022-11-17T07:09:04.958Z,95011.88
2022-11-17T07:11:34.802Z,94994.25
2022-11-17T07:14:01.191Z,94972.47
2022-11-17T07:16:29.160Z,94988.19
2022-11-17T07:18:55.682Z,94985.16
2022-11-17T07:21:22.462Z,94986.16
2022-11-17T07:23:48.841Z,94983.38
2022-11-17T07:26:15.215Z,94963.63
2022-11-17T07:28:41.603Z,94963.91
2022-11-17T07:31:09.238Z,94959.03
2022-11-17T07:33:36.800Z,94949.78
2022-11-17T07:36:09.628Z,94943.72
2022-11-17T07:38:38.005Z,94944.91
2022-11-17T07:41:05.387Z,94942.06
2022-11-17T07:43:34.278Z,94919.06
2022-11-17T07:46:08.573Z,94917.78
2022-11-17T07:48:36.135Z,94910.53
2022-11-17T07:51:04.720Z,94903.25
2022-11-17T07:53:33.480Z,94906.09
2022-11-17T07:56:05.003Z,94911.16
2022-11-17T07:58:32.354Z,94911.72
2022-11-17T08:00:58.902Z,94895.53
2022-11-17T08:03:25.425Z,94895.16
2022-11-17T08:05:53.325Z,94899.75
2022-11-17T08:08:19.746Z,94895.53
2022-11-17T08:10:46.189Z,94891.06
2022-11-17T08:13:14.093Z,94879.66
2022-11-17T08:15:40.477Z,94857.25
2022-11-17T08:18:06.920Z,94877.41
2022-11-17T08:20:33.801Z,94872.31
2022-11-17T08:23:00.201Z,94866.47
2022-11-17T08:25:27.398Z,94863.41
2022-11-17T08:27:57.974Z,94859.03
2022-11-17T08:30:26.013Z,94853.16
2022-11-17T08:32:54.406Z,94851.34
2022-11-17T08:35:23.175Z,94847.47
2022-11-17T08:37:49.670Z,94844.72
2022-11-17T08:40:18.014Z,94862.31
2022-11-17T08:42:44.687Z,94847.16
2022-11-17T08:45:11.769Z,94857.91
2022-11-17T08:47:38.446Z,94853.31
2022-11-17T08:50:06.913Z,94853.59
2022-11-17T08:52:33.355Z,94846.00
2022-11-17T08:54:59.916Z,94845.63
2022-11-17T08:57:26.471Z,94846.50
2022-11-17T08:59:52.873Z,94845.81
2022-11-17T09:02:19.383Z,94843.63
2022-11-17T09:04:46.555Z,94834.59
2022-11-17T09:07:13.267Z,94846.25
2022-11-17T09:09:39.819Z,94844.81
2022-11-17T09:12:06.329Z,94828.72
2022-11-17T09:14:32.968Z,94833.41
2022-11-17T09:16:59.411Z,94831.34
2022-11-17T09:19:25.885Z,94824.84
2022-11-17T09:21:52.253Z,94826.34
2022-11-17T09:24:18.694Z,94813.78
2022-11-17T09:26:45.090Z,94836.00
2022-11-17T09:29:11.656Z,94826.84
2022-11-17T09:31:38.348Z,94834.19
2022-11-17T09:34:05.825Z,94826.66
2022-11-17T09:36:33.333Z,94839.44
2022-11-17T09:38:59.818Z,94832.28
2022-11-17T09:41:41.744Z,94808.94
2022-11-17T09:44:29.399Z,94783.34
2022-11-17T09:47:07.039Z,94781.41
2022-11-17T09:49:45.662Z,94756.06
2022-11-17T09:52:27.619Z,94756.44
2022-11-17T09:55:00.712Z,94673.47
2022-11-17T09:57:45.499Z,94683.00
2022-11-17T10:00:22.773Z,94713.69
2022-11-17T10:02:51.520Z,94784.31
2022-11-17T10:05:34.013Z,94810.63
2022-11-17T10:08:06.653Z,94833.06
2022-11-17T10:10:46.854Z,94862.94
2022-11-17T10:13:27.990Z,94882.72
2022-11-17T10:16:00.372Z,94900.63
2022-11-17T10:18:28.024Z,94897.72
2022-11-17T10:20:54.406Z,94906.38
2022-11-17T10:23:22.018Z,94918.69
2022-11-17T10:25:56.385Z,94937.16
2022-11-17T10:28:33.008Z,94943.53
2022-11-17T10:31:01.367Z,94949.59
2022-11-17T10:33:35.322Z,94968.94
2022-11-17T10:36:02.914Z,94971.72
2022-11-17T10:38:30.749Z,95001.81
2022-11-17T10:41:00.429Z,94994.03
2022-11-17T10:43:33.803Z,95007.69
2022-11-17T10:46:14.465Z,95026.19
2022-11-17T10:49:00.947Z,95021.84
2022-11-17T10:51:34.366Z,95013.34
2022-11-17T10:54:06.475Z,95022.28
2022-11-17T10:56:40.120Z,95020.66
2022-11-17T10:59:06.573Z,95007.59
2022-11-17T11:01:41.847Z,95010.81
2022-11-17T11:04:28.158Z,95003.38
2022-11-17T11:07:14.258Z,94995.22
2022-11-17T11:09:55.968Z,94990.50
2022-11-17T11:12:34.906Z,94993.16
2022-11-17T11:15:03.157Z,94993.50
2022-11-17T11:17:29.878Z,94968.75
2022-11-17T11:19:56.748Z,94998.53
2022-11-17T11:22:33.091Z,95004.16
2022-11-17T11:25:36.225Z,94994.97
2022-11-17T11:28:20.197Z,94970.09
2022-11-17T11:31:06.735Z,94988.69
2022-11-17T11:33:41.426Z,94984.91
2022-11-17T11:36:29.762Z,94979.16
2022-11-17T11:39:16.451Z,94974.94
2022-11-17T11:42:07.965Z,94975.63
2022-11-17T11:44:48.441Z,94989.25
2022-11-17T11:47:36.845Z,95001.06
2022-11-17T11:50:06.302Z,94995.91
2022-11-17T11:52:38.061Z,94988.00
2022-11-17T11:55:31.974Z,94974.38
2022-11-17T11:58:13.908Z,94978.59
2022-11-17T12:00:42.794Z,94982.03
2022-11-17T12:03:33.711Z,94972.88
2022-11-17T12:06:25.041Z,94982.81
2022-11-17T12:09:08.670Z,94961.84
2022-11-17T12:11:57.913Z,94987.66
2022-11-17T12:14:24.659Z,94965.94
2022-11-17T12:17:01.581Z,94971.09
2022-11-17T12:19:59.687Z,94960.28
2022-11-17T12:22:28.806Z,94977.16
2022-11-17T12:24:57.663Z,94968.31
2022-11-17T12:27:33.305Z,94972.19
2022-11-17T12:30:00.660Z,94974.84
2022-11-17T12:32:44.937Z,94983.22
2022-11-17T12:35:39.054Z,94992.63
2022-11-17T12:38:31.230Z,94994.25
2022-11-17T12:40:57.599Z,95000.09
2022-11-17T12:43:26.080Z,95008.56
2022-11-17T12:45:52.373Z,95021.09
2022-11-17T12:48:33.804Z,95026.84
2022-11-17T12:51:21.778Z,95034.19
2022-11-17T12:53:56.150Z,95040.19
2022-11-17T12:56:37.321Z,95038.66
2022-11-17T12:59:23.836Z,95066.09
2022-11-17T13:02:11.528Z,95063.13
2022-11-17T13:04:49.414Z,95077.47
2022-11-17T13:07:22.107Z,95078.84
2022-11-17T13:09:54.330Z,95095.03
2022-11-17T13:12:26.386Z,95091.78
2022-11-17T13:14:58.603Z,95101.66
2022-11-17T13:17:42.745Z,95100.28
2022-11-17T13:20:29.780Z,95110.63
2022-11-17T13:23:25.784Z,95124.03
2022-11-17T13:26:18.399Z,95116.69
2022-11-17T13:28:46.038Z,95118.84
2022-11-17T13:31:18.429Z,95119.06
2022-11-17T13:33:56.694Z,95113.31
2022-11-17T13:36:27.105Z,95118.72
2022-11-17T13:38:57.290Z,95127.34
2022-11-17T13:41:25.728Z,95120.56
2022-11-17T13:43:53.739Z,95138.91
2022-11-17T13:46:20.775Z,95136.50
2022-11-17T13:48:49.783Z,95138.81
2022-11-17T13:51:35.053Z,95137.78
2022-11-17T13:54:06.869Z,95135.97
2022-11-17T13:56:41.204Z,95125.72
2022-11-17T13:59:28.514Z,95122.16
2022-11-17T14:02:16.697Z,95139.25
2022-11-17T14:05:15.119Z,95138.91
2022-11-17T14:07:43.493Z,95125.94
2022-11-17T14:10:22.340Z,95124.81
2022-11-17T14:12:53.883Z,95117.34
2022-11-17T14:15:29.278Z,95125.56
2022-11-17T14:18:01.023Z,95124.34
2022-11-17T14:20:35.349Z,95126.19
2022-11-17T14:23:15.877Z,95123.09
2022-11-17T14:25:44.878Z,95113.31
2022-11-17T14:28:16.169Z,95107.72
2022-11-17T14:30:42.902Z,95107.50
2022-11-17T14:33:13.630Z,95086.50
2022-11-17T14:35:40.910Z,95104.75
2022-11-17T14:38:10.421Z,95083.75
2022-11-17T14:40:36.817Z,95089.84
2022-11-17T14:43:03.217Z,95077.13
2022-11-17T14:45:29.840Z,95081.13
2022-11-17T14:47:56.529Z,95072.53
2022-11-17T14:50:23.066Z,95096.50
2022-11-17T14:52:49.435Z,95109.34
2022-11-17T14:55:15.883Z,95119.09
2022-11-17T14:57:42.337Z,95142.28
2022-11-17T15:00:11.025Z,95144.31
2022-11-17T15:02:40.507Z,95123.78
2022-11-17T15:05:07.415Z,95143.63
2022-11-17T15:07:33.902Z,95119.78
2022-11-17T15:10:00.473Z,95146.75
2022-11-17T15:12:26.947Z,95139.69
2022-11-17T15:14:53.645Z,95147.19
2022-11-17T15:17:20.140Z,95144.31
2022-11-17T15:19:46.558Z,95151.31
2022-11-17T15:22:13.164Z,95145.25
2022-11-17T15:24:39.739Z,95140.50
2022-11-17T15:27:06.247Z,95155.19
2022-11-17T15:29:32.925Z,95155.31
2022-11-17T15:31:59.371Z,95167.50
2022-11-17T15:34:25.859Z,95161.03
2022-11-17T15:36:52.385Z,95186.72
2022-11-17T15:39:19.255Z,95194.00
2022-11-17T15:41:45.767Z,95194.78
2022-11-17T15:44:12.176Z,95182.25
2022-11-17T15:46:42.918Z,95167.66
2022-11-17T15:49:12.407Z,95185.00
2022-11-17T15:51:38.810Z,95175.03
2022-11-17T15:54:05.302Z,95177.81
2022-11-17T15:56:38.572Z,95166.88
2022-11-17T15:59:06.366Z,95158.03
2022-11-17T16:01:34.598Z,95148.78
2022-11-17T16:04:09.207Z,95153.38
2022-11-17T16:06:38.352Z,95150.72
2022-11-17T16:09:06.573Z,95160.22
2022-11-17T16:11:36.579Z,95159.75
2022-11-17T16:14:04.013Z,95137.50
2022-11-17T16:16:33.254Z,95139.31
2022-11-17T16:19:00.033Z,95134.97
2022-11-17T16:21:26.575Z,95143.72
2022-11-17T16:23:55.811Z,95150.88
2022-11-17T16:26:24.286Z,95154.75
2022-11-17T16:29:04.198Z,95149.22
2022-11-17T16:31:33.048Z,95162.09
2022-11-17T16:34:01.294Z,95166.19
2022-11-17T16:36:34.573Z,95175.72
2022-11-17T16:39:03.114Z,95164.16
2022-11-17T16:41:33.031Z,95173.84
2022-11-17T16:44:00.473Z,95146.13
2022-11-17T16:46:29.828Z,95170.03
2022-11-17T16:49:00.325Z,95153.09
2022-11-17T16:51:26.832Z,95160.84
2022-11-17T16:53:58.759Z,95151.03
2022-11-17T16:56:25.628Z,95139.25
2022-11-17T16:58:55.883Z,95124.13
2022-11-17T17:01:27.700Z,95123.25
2022-11-17T17:04:08.205Z,95116.97
2022-11-17T17:06:37.138Z,95107.28
2022-11-17T17:09:08.300Z,95099.59
2022-11-17T17:11:38.956Z,95095.75
2022-11-17T17:14:08.947Z,95082.44
2022-11-17T17:16:36.998Z,95059.91
2022-11-17T17:19:05.869Z,95079.63
2022-11-17T17:21:33.339Z,95073.78
2022-11-17T17:24:00.221Z,95078.75
2022-11-17T17:26:28.904Z,95068.09
2022-11-17T17:28:57.121Z,95044.84
2022-11-17T17:31:25.078Z,95053.31
2022-11-17T17:33:54.334Z,95044.13
2022-11-17T17:36:23.257Z,95028.47
2022-11-17T17:38:55.538Z,95018.47
2022-11-17T17:41:25.268Z,95024.44
2022-11-17T17:44:06.540Z,95010.34
2022-11-17T17:46:38.458Z,95016.75
2022-11-17T17:49:05.980Z,95013.13
2022-11-17T17:51:36.986Z,95002.00
2022-11-17T17:54:03.483Z,94988.84
2022-11-17T17:56:32.607Z,94999.75
2022-11-17T17:58:59.162Z,94988.13
2022-11-17T18:01:29.342Z,94975.41
2022-11-17T18:04:02.527Z,94966.84
2022-11-17T18:06:28.891Z,94967.63
2022-11-17T18:08:56.317Z,94964.44
2022-11-17T18:11:24.353Z,94957.09
2022-11-17T18:13:52.630Z,94958.00
2022-11-17T18:16:27.089Z,94958.28
2022-11-17T18:19:01.977Z,94940.16
2022-11-17T18:21:28.721Z,94936.94
2022-11-17T18:23:56.129Z,94935.47
2022-11-17T18:26:24.742Z,94932.94
2022-11-17T18:29:02.999Z,94929.63
2022-11-17T18:31:31.994Z,94928.72
2022-11-17T18:34:01.335Z,94930.34
2022-11-17T18:36:29.068Z,94931.22
2022-11-17T18:38:57.888Z,94914.06
2022-11-17T18:41:25.836Z,94928.28
2022-11-17T18:43:52.495Z,94909.03
2022-11-17T18:46:21.642Z,94932.41
2022-11-17T18:48:51.599Z,94925.97
2022-11-17T18:51:21.249Z,94933.38
2022-11-17T18:53:49.562Z,94938.28
2022-11-17T18:56:18.653Z,94938.72
2022-11-17T18:58:45.495Z,94951.75
2022-11-17T19:01:14.796Z,94953.34
2022-11-17T19:03:42.874Z,94958.72
2022-11-17T19:06:10.343Z,94945.94
2022-11-17T19:08:37.133Z,94952.19
2022-11-17T19:11:06.434Z,94948.97
2022-11-17T19:13:35.453Z,94945.31
2022-11-17T19:16:06.168Z,94955.91
2022-11-17T19:18:33.058Z,94952.47
2022-11-17T19:21:13.561Z,94957.88
2022-11-17T19:23:43.449Z,94942.25
2022-11-17T19:26:14.664Z,94956.69
2022-11-17T19:28:41.519Z,94949.03
2022-11-17T19:31:13.923Z,94950.00
2022-11-17T19:33:41.460Z,94966.44
2022-11-17T19:36:19.586Z,94968.13
2022-11-17T19:38:50.474Z,94951.16
2022-11-17T19:41:22.682Z,94949.56
2022-11-17T19:43:52.593Z,94920.66
2022-11-17T19:46:18.996Z,94976.28
2022-11-17T19:48:45.703Z,94994.00
2022-11-17T19:51:23.619Z,94966.78
2022-11-17T19:53:54.664Z,94986.53
2022-11-17T19:56:21.734Z,94996.31
2022-11-17T19:58:49.739Z,95003.69
2022-11-17T20:01:42.381Z,95010.84
2022-11-17T20:04:09.113Z,95004.41
2022-11-17T20:06:37.868Z,94999.34
2022-11-17T20:09:09.570Z,95004.78
2022-11-17T20:11:36.491Z,95006.47
2022-11-17T20:14:03.400Z,95004.03
2022-11-17T20:16:32.945Z,94990.88
2022-11-17T20:19:01.444Z,95004.88
2022-11-17T20:21:29.276Z,95013.81
2022-11-17T20:23:56.304Z,94990.47
2022-11-17T20:26:24.776Z,95034.09
2022-11-17T20:28:52.511Z,95050.41
2022-11-17T20:31:24.631Z,95054.38
2022-11-17T20:33:52.177Z,95063.38
2022-11-17T20:36:20.508Z,95066.19
2022-11-17T20:38:54.142Z,95082.88
2022-11-17T20:41:21.374Z,95085.00
2022-11-17T20:43:52.435Z,95088.63
2022-11-17T20:46:20.136Z,95089.22
2022-11-17T20:48:46.809Z,95076.94
2022-11-17T20:51:18.724Z,95094.66
2022-11-17T20:53:45.428Z,95066.00
2022-11-17T20:56:13.663Z,95080.25
2022-11-17T20:58:40.194Z,95082.13
2022-11-17T21:01:24.651Z,95082.75
2022-11-17T21:03:51.309Z,95076.50
2022-11-17T21:06:18.995Z,95065.91
2022-11-17T21:08:46.370Z,95047.13
2022-11-17T21:11:34.382Z,95072.06
2022-11-17T21:14:00.823Z,95080.19
2022-11-17T21:16:27.286Z,95078.97
2022-11-17T21:18:53.819Z,95079.53
2022-11-17T21:21:20.319Z,95086.66
2022-11-17T21:23:46.723Z,95091.09
2022-11-17T21:26:18.417Z,95084.22
2022-11-17T21:28:45.535Z,95088.66
2022-11-17T21:31:15.095Z,95086.00
2022-11-17T21:33:42.542Z,95094.31
2022-11-17T21:36:14.440Z,95087.47
2022-11-17T21:38:41.716Z,95087.06
2022-11-17T21:41:11.635Z,95090.50
2022-11-17T21:43:39.696Z,95088.22
2022-11-17T21:46:09.089Z,95090.28
2022-11-17T21:48:37.126Z,95087.44
2022-11-17T21:51:05.073Z,95098.22
2022-11-17T21:53:32.020Z,95097.00
2022-11-17T21:56:05.924Z,95079.03
2022-11-17T21:58:33.710Z,95039.06
2022-11-17T22:01:08.337Z,95082.22
2022-11-17T22:03:34.829Z,95079.44
2022-11-17T22:06:12.035Z,95083.94
2022-11-17T22:08:40.095Z,95070.34
2022-11-17T22:11:11.924Z,95100.63
2022-11-17T22:13:39.255Z,95112.59
2022-11-17T22:16:14.002Z,95118.44
2022-11-17T22:18:41.338Z,95114.00
2022-11-17T22:21:08.557Z,95112.19
2022-11-17T22:23:35.419Z,95113.63
2022-11-17T22:26:05.053Z,95109.56
2022-11-17T22:28:31.480Z,95103.94
2022-11-17T22:30:58.045Z,95100.69
2022-11-17T22:33:25.134Z,95106.38
2022-11-17T22:35:51.706Z,95106.38
2022-11-17T22:38:18.255Z,95100.75
2022-11-17T22:40:45.126Z,95104.97
2022-11-17T22:43:14.825Z,95100.53
2022-11-17T22:45:41.998Z,95100.75
2022-11-17T22:48:09.108Z,95094.28
2022-11-17T22:50:36.305Z,95086.00
2022-11-17T22:53:03.277Z,95090.63
2022-11-17T22:55:29.771Z,95047.06
2022-11-17T22:57:56.201Z,95069.63
2022-11-17T23:00:22.925Z,95045.00
2022-11-17T23:02:49.474Z,95028.88
2022-11-17T23:05:16.593Z,95052.28
2022-11-17T23:07:43.263Z,95051.06
2022-11-17T23:10:10.651Z,95035.28
2022-11-17T23:12:37.155Z,95014.69
2022-11-17T23:15:03.986Z,95025.28
2022-11-17T23:17:30.390Z,95017.59
2022-11-17T23:19:56.829Z,95034.94
2022-11-17T23:22:23.214Z,95041.16
2022-11-17T23:24:49.632Z,95041.59
2022-11-17T23:27:16.041Z,95014.34
2022-11-17T23:29:42.494Z,95028.91
2022-11-17T23:32:09.481Z,95034.91
2022-11-17T23:34:36.349Z,95029.44
2022-11-17T23:37:04.095Z,95026.03
2022-11-17T23:39:30.698Z,95024.78
2022-11-17T23:41:57.182Z,95027.22
2022-11-17T23:44:23.571Z,95035.69
2022-11-17T23:46:49.968Z,95026.41
2022-11-17T23:49:16.827Z,95008.78
2022-11-17T23:51:43.387Z,95007.44
2022-11-17T23:54:13.269Z,95021.50
2022-11-17T23:56:40.322Z,95024.28
2022-11-17T23:59:08.179Z,95035.13
